createdAt,value
2023-01-18T00:00:40.189Z,13.75
2023-01-18T00:03:11.121Z,13.75
2023-01-18T00:05:41.054Z,14.18
2023-01-18T00:08:09.336Z,13.98
2023-01-18T00:10:35.964Z,13.45
2023-01-18T00:13:02.626Z,15.68
2023-01-18T00:15:29.054Z,16.40
2023-01-18T00:17:55.469Z,17.75
2023-01-18T00:20:24.260Z,16.90
2023-01-18T00:22:51.907Z,18.35
2023-01-18T00:25:20.235Z,17.50
2023-01-18T00:27:51.993Z,17.75
2023-01-18T00:30:21.469Z,18.27
2023-01-18T00:32:49.130Z,16.95
2023-01-18T00:35:16.011Z,19.75
2023-01-18T00:37:42.927Z,18.83
2023-01-18T00:40:10.356Z,19.25
2023-01-18T00:42:55.534Z,19.08
2023-01-18T00:45:22.048Z,17.92
2023-01-18T00:47:48.440Z,18.33
2023-01-18T00:50:15.057Z,19.55
2023-01-18T00:52:46.539Z,16.77
2023-01-18T00:55:14.676Z,18.90
2023-01-18T00:57:41.894Z,18.90
2023-01-18T01:00:12.274Z,17.92
2023-01-18T01:02:41.625Z,18.87
2023-01-18T01:05:41.317Z,17.27
2023-01-18T01:08:08.052Z,18.30
2023-01-18T01:10:35.247Z,16.10
2023-01-18T01:13:20.688Z,17.33
2023-01-18T01:16:05.543Z,16.58
2023-01-18T01:18:50.874Z,15.90
2023-01-18T01:21:35.600Z,16.98
2023-01-18T01:24:20.468Z,14.05
2023-01-18T01:26:46.859Z,14.10
2023-01-18T01:29:13.378Z,12.95
2023-01-18T01:31:40.779Z,12.57
2023-01-18T01:34:07.304Z,12.73
2023-01-18T01:36:34.110Z,11.90
2023-01-18T01:39:00.563Z,12.70
2023-01-18T01:41:34.938Z,12.45
2023-01-18T01:44:04.748Z,11.02
2023-01-18T01:46:46.451Z,11.90
2023-01-18T01:49:15.522Z,10.95
2023-01-18T01:51:44.221Z,10.38
2023-01-18T01:54:15.632Z,11.25
2023-01-18T01:59:10.578Z,10.05
2023-01-18T02:01:38.865Z,11.30
2023-01-18T02:04:05.883Z,10.38
2023-01-18T02:06:38.224Z,9.57
2023-01-18T02:09:11.316Z,10.77
2023-01-18T02:11:38.655Z,9.50
2023-01-18T02:14:10.127Z,9.45
2023-01-18T02:17:02.951Z,9.90
2023-01-18T02:20:02.005Z,9.25
2023-01-18T02:22:53.231Z,9.18
2023-01-18T02:25:38.324Z,9.10
2023-01-18T02:28:07.815Z,8.80
2023-01-18T02:30:39.658Z,9.32
2023-01-18T02:33:49.475Z,10.73
2023-01-18T02:36:38.398Z,8.75
2023-01-18T02:39:23.292Z,8.57
2023-01-18T02:42:14.773Z,9.13
2023-01-18T02:45:04.600Z,9.45
2023-01-18T02:47:32.964Z,8.95
2023-01-18T02:49:59.380Z,9.52
2023-01-18T02:52:41.936Z,9.63
2023-01-18T02:55:31.896Z,9.10
2023-01-18T02:58:07.765Z,8.85
2023-01-18T03:00:37.902Z,9.15
2023-01-18T03:03:10.856Z,9.25
2023-01-18T03:05:38.591Z,9.90
2023-01-18T03:08:19.693Z,9.35
2023-01-18T03:11:04.715Z,10.30
2023-01-18T03:13:53.278Z,9.63
2023-01-18T03:16:25.834Z,9.60
2023-01-18T03:19:02.923Z,8.60
2023-01-18T03:21:37.783Z,10.20
2023-01-18T03:24:07.283Z,9.82
2023-01-18T03:26:39.477Z,8.85
2023-01-18T03:29:25.623Z,9.25
2023-01-18T03:32:30.963Z,7.95
2023-01-18T03:35:03.458Z,7.20
2023-01-18T03:37:32.575Z,7.43
2023-01-18T03:40:11.612Z,7.53
2023-01-18T03:42:53.070Z,7.68
2023-01-18T03:47:54.903Z,7.35
2023-01-18T03:50:32.846Z,8.70
2023-01-18T03:53:07.376Z,7.57
2023-01-18T03:55:42.072Z,8.45
2023-01-18T03:58:15.195Z,9.52
2023-01-18T04:00:41.695Z,8.52
2023-01-18T04:03:08.253Z,7.20
2023-01-18T04:05:35.251Z,8.13
2023-01-18T04:08:01.753Z,8.48
2023-01-18T04:10:28.341Z,8.43
2023-01-18T04:12:54.777Z,8.50
2023-01-18T04:15:21.201Z,8.23
2023-01-18T04:17:52.961Z,8.93
2023-01-18T04:20:19.362Z,8.38
2023-01-18T04:22:51.598Z,9.50
2023-01-18T04:25:18.407Z,9.23
2023-01-18T04:27:44.827Z,9.23
2023-01-18T04:30:11.481Z,9.43
2023-01-18T04:32:37.978Z,10.18
2023-01-18T04:35:04.849Z,9.65
2023-01-18T04:37:33.898Z,9.82
2023-01-18T04:40:00.630Z,8.70
2023-01-18T04:42:27.079Z,9.50
2023-01-18T04:44:53.517Z,9.15
2023-01-18T04:47:19.929Z,8.00
2023-01-18T04:49:46.384Z,8.05
2023-01-18T04:52:12.767Z,8.23
2023-01-18T04:54:39.224Z,9.52
2023-01-18T04:57:05.621Z,8.18
2023-01-18T04:59:32.013Z,9.40
2023-01-18T05:01:58.474Z,8.82
2023-01-18T05:04:24.900Z,8.82
2023-01-18T05:06:51.318Z,9.30
2023-01-18T05:09:17.958Z,9.52
2023-01-18T05:11:44.376Z,8.80
2023-01-18T05:14:10.825Z,8.52
2023-01-18T05:16:37.299Z,8.43
2023-01-18T05:19:03.723Z,8.75
2023-01-18T05:21:30.123Z,8.10
2023-01-18T05:23:56.571Z,9.07
2023-01-18T05:26:24.066Z,9.68
2023-01-18T05:28:55.999Z,8.05
2023-01-18T05:31:22.607Z,8.52
2023-01-18T05:33:49.077Z,8.35
2023-01-18T05:36:15.620Z,8.55
2023-01-18T05:38:42.120Z,8.70
2023-01-18T05:41:08.559Z,8.80
2023-01-18T05:43:35.869Z,8.82
2023-01-18T05:46:02.473Z,9.35
2023-01-18T05:48:28.948Z,8.88
2023-01-18T05:50:55.632Z,9.75
2023-01-18T05:53:22.817Z,17.55
2023-01-18T05:56:02.084Z,14.60
2023-01-18T05:58:28.920Z,11.73
2023-01-18T06:00:55.601Z,10.63
2023-01-18T06:03:23.415Z,10.85
2023-01-18T06:05:51.360Z,12.45
2023-01-18T06:08:19.086Z,11.95
2023-01-18T06:10:52.882Z,11.93
2023-01-18T06:13:19.307Z,12.68
2023-01-18T06:15:49.489Z,13.63
2023-01-18T06:18:16.137Z,14.30
2023-01-18T06:20:42.614Z,13.68
2023-01-18T06:23:09.004Z,13.27
2023-01-18T06:25:35.451Z,13.05
2023-01-18T06:28:02.619Z,12.23
2023-01-18T06:30:29.109Z,11.95
2023-01-18T06:32:55.505Z,12.55
2023-01-18T06:35:22.101Z,12.43
2023-01-18T06:37:48.530Z,12.48
2023-01-18T06:40:15.263Z,12.48
2023-01-18T06:42:41.838Z,11.77
2023-01-18T06:45:08.968Z,13.60
2023-01-18T06:47:35.390Z,11.82
2023-01-18T06:50:01.840Z,9.50
2023-01-18T06:52:28.233Z,8.75
2023-01-18T06:54:54.672Z,9.20
2023-01-18T06:57:21.048Z,9.32
2023-01-18T06:59:47.449Z,7.65
2023-01-18T07:02:15.063Z,7.38
2023-01-18T07:04:44.086Z,8.95
2023-01-18T07:07:10.930Z,9.68
2023-01-18T07:09:37.670Z,9.65
2023-01-18T07:12:04.707Z,10.02
2023-01-18T07:14:31.152Z,7.90
2023-01-18T07:16:57.692Z,8.20
2023-01-18T07:19:24.132Z,8.30
2023-01-18T07:21:53.589Z,7.63
2023-01-18T07:24:20.742Z,8.27
2023-01-18T07:26:47.115Z,8.30
2023-01-18T07:29:13.765Z,6.53
2023-01-18T07:31:40.550Z,6.90
2023-01-18T07:34:07.177Z,8.52
2023-01-18T07:36:34.035Z,7.88
2023-01-18T07:39:03.072Z,7.70
2023-01-18T07:41:31.008Z,7.43
2023-01-18T07:43:57.565Z,7.82
2023-01-18T07:46:26.011Z,6.68
2023-01-18T07:48:53.097Z,6.75
2023-01-18T07:51:21.706Z,6.80
2023-01-18T07:53:48.421Z,8.00
2023-01-18T07:56:17.220Z,6.32
2023-01-18T07:58:45.018Z,8.38
2023-01-18T08:01:14.052Z,8.25
2023-01-18T08:03:45.621Z,7.15
2023-01-18T08:06:16.869Z,10.68
2023-01-18T08:08:43.908Z,6.68
2023-01-18T08:11:11.438Z,4.70
2023-01-18T08:13:38.113Z,4.75
2023-01-18T08:16:07.104Z,5.50
2023-01-18T08:18:33.577Z,4.35
2023-01-18T08:21:00.119Z,3.97
2023-01-18T08:23:26.623Z,4.18
2023-01-18T08:25:53.031Z,4.95
2023-01-18T08:28:19.477Z,4.22
2023-01-18T08:30:47.832Z,4.88
2023-01-18T08:33:14.707Z,4.85
2023-01-18T08:35:43.865Z,4.20
2023-01-18T08:38:11.835Z,5.00
2023-01-18T08:40:38.838Z,5.28
2023-01-18T08:43:05.911Z,4.63
2023-01-18T08:45:34.844Z,5.03
2023-01-18T08:48:04.324Z,4.95
2023-01-18T08:50:32.274Z,6.20
2023-01-18T08:53:00.159Z,5.72
2023-01-18T08:55:29.593Z,6.63
2023-01-18T08:57:58.918Z,6.00
2023-01-18T09:00:29.832Z,5.85
2023-01-18T09:02:56.971Z,4.88
2023-01-18T09:05:27.471Z,5.20
2023-01-18T09:07:54.743Z,5.13
2023-01-18T09:10:22.171Z,4.65
2023-01-18T09:12:48.711Z,5.13
2023-01-18T09:15:15.151Z,5.00
2023-01-18T09:17:41.587Z,5.50
2023-01-18T09:20:09.766Z,5.53
2023-01-18T09:22:37.500Z,5.32
2023-01-18T09:25:05.667Z,5.80
2023-01-18T09:27:32.405Z,5.00
2023-01-18T09:30:00.177Z,4.80
2023-01-18T09:32:27.385Z,4.30
2023-01-18T09:34:54.739Z,5.78
2023-01-18T09:37:21.553Z,5.18
2023-01-18T09:39:52.297Z,4.75
2023-01-18T09:42:25.212Z,5.10
2023-01-18T09:44:55.138Z,4.25
2023-01-18T09:47:34.050Z,4.60
2023-01-18T09:50:06.619Z,5.10
2023-01-18T09:52:33.002Z,4.78
2023-01-18T09:55:03.989Z,4.93
2023-01-18T09:57:50.375Z,4.80
2023-01-18T10:00:47.401Z,5.25
2023-01-18T10:03:23.163Z,5.22
2023-01-18T10:06:08.418Z,5.05
2023-01-18T10:08:44.868Z,4.80
2023-01-18T10:11:21.318Z,5.35
2023-01-18T10:13:58.919Z,5.95
2023-01-18T10:16:26.251Z,5.65
2023-01-18T10:18:55.616Z,5.95
2023-01-18T10:21:47.384Z,6.45
2023-01-18T10:24:43.722Z,7.10
2023-01-18T10:27:27.322Z,7.20
2023-01-18T10:30:11.120Z,6.95
2023-01-18T10:32:38.517Z,7.25
2023-01-18T10:35:24.786Z,6.78
2023-01-18T10:37:54.952Z,7.60
2023-01-18T10:40:23.042Z,7.22
2023-01-18T10:42:53.531Z,6.68
2023-01-18T10:45:29.285Z,6.10
2023-01-18T10:47:58.021Z,5.35
2023-01-18T10:50:39.934Z,4.45
2023-01-18T10:53:31.449Z,6.43
2023-01-18T10:58:52.494Z,5.28
2023-01-18T11:01:25.741Z,5.47
2023-01-18T11:03:55.944Z,5.28
2023-01-18T11:06:24.352Z,5.80
2023-01-18T11:08:51.476Z,5.82
2023-01-18T11:11:47.532Z,5.90
2023-01-18T11:14:31.093Z,6.85
2023-01-18T11:17:03.320Z,6.45
2023-01-18T11:19:30.303Z,7.22
2023-01-18T11:21:56.868Z,7.35
2023-01-18T11:24:27.798Z,7.75
2023-01-18T11:27:03.798Z,7.43
2023-01-18T11:29:38.391Z,6.47
2023-01-18T11:32:09.543Z,7.80
2023-01-18T11:34:38.704Z,7.03
2023-01-18T11:37:29.541Z,6.65
2023-01-18T11:39:55.975Z,7.68
2023-01-18T11:42:31.488Z,8.30
2023-01-18T11:45:24.416Z,8.20
2023-01-18T11:48:22.526Z,8.10
2023-01-18T11:50:57.210Z,9.20
2023-01-18T11:53:47.847Z,8.43
2023-01-18T11:56:45.171Z,9.70
2023-01-18T11:59:29.404Z,8.25
2023-01-18T12:02:16.786Z,8.57
2023-01-18T12:04:58.224Z,9.95
2023-01-18T12:07:44.463Z,11.38
2023-01-18T12:10:20.964Z,11.35
2023-01-18T12:13:22.474Z,8.90
2023-01-18T12:15:58.753Z,7.15
2023-01-18T12:18:43.791Z,6.90
2023-01-18T12:21:18.933Z,7.45
2023-01-18T12:24:03.704Z,7.45
2023-01-18T12:26:30.171Z,7.88
2023-01-18T12:29:08.240Z,8.05
2023-01-18T12:32:06.123Z,8.18
2023-01-18T12:34:46.857Z,7.88
2023-01-18T12:37:22.048Z,7.78
2023-01-18T12:40:13.211Z,7.22
2023-01-18T12:43:18.622Z,7.45
2023-01-18T12:45:48.996Z,7.32
2023-01-18T12:48:35.924Z,7.47
2023-01-18T12:51:08.820Z,8.02
2023-01-18T12:53:50.677Z,8.80
2023-01-18T12:56:23.878Z,8.52
2023-01-18T12:58:56.747Z,8.05
2023-01-18T13:01:28.666Z,8.77
2023-01-18T13:04:01.653Z,7.53
2023-01-18T13:06:29.189Z,8.48
2023-01-18T13:09:02.706Z,8.40
2023-01-18T13:11:32.441Z,8.50
2023-01-18T13:14:09.394Z,9.05
2023-01-18T13:16:44.352Z,7.90
2023-01-18T13:19:20.463Z,8.75
2023-01-18T13:22:04.386Z,9.00
2023-01-18T13:24:52.773Z,9.60
2023-01-18T13:27:19.288Z,11.10
2023-01-18T13:29:46.297Z,11.48
2023-01-18T13:32:24.901Z,11.55
2023-01-18T13:35:18.005Z,10.07
2023-01-18T13:38:15.150Z,9.63
2023-01-18T13:40:51.286Z,10.13
2023-01-18T13:43:29.410Z,12.00
2023-01-18T13:46:02.566Z,11.95
2023-01-18T13:48:50.415Z,10.75
2023-01-18T13:51:46.989Z,10.70
2023-01-18T13:54:22.586Z,11.25
2023-01-18T13:57:01.184Z,9.40
2023-01-18T13:59:31.800Z,7.82
2023-01-18T14:02:12.328Z,7.63
2023-01-18T14:04:39.332Z,7.73
2023-01-18T14:07:07.447Z,8.18
2023-01-18T14:09:42.070Z,9.18
2023-01-18T14:12:10.382Z,10.13
2023-01-18T14:14:59.340Z,7.65
2023-01-18T14:17:26.106Z,7.93
2023-01-18T14:19:55.372Z,6.68
2023-01-18T14:22:46.239Z,6.93
2023-01-18T14:25:32.678Z,7.63
2023-01-18T14:28:14.794Z,7.40
2023-01-18T14:30:43.826Z,8.75
2023-01-18T14:33:33.843Z,7.53
2023-01-18T14:36:01.865Z,8.45
2023-01-18T14:38:29.582Z,8.15
2023-01-18T14:40:59.405Z,7.97
2023-01-18T14:43:34.849Z,9.35
2023-01-18T14:46:16.279Z,8.43
2023-01-18T14:51:24.697Z,9.98
2023-01-18T14:53:57.796Z,8.63
2023-01-18T14:56:26.871Z,9.73
2023-01-18T14:58:57.576Z,7.80
2023-01-18T15:01:26.369Z,6.82
2023-01-18T15:03:55.138Z,7.55
2023-01-18T15:06:27.591Z,7.35
2023-01-18T15:08:54.536Z,8.52
2023-01-18T15:11:23.157Z,9.35
2023-01-18T15:13:52.257Z,10.00
2023-01-18T15:16:23.047Z,8.55
2023-01-18T15:18:52.585Z,8.32
2023-01-18T15:21:27.384Z,8.07
2023-01-18T15:24:08.580Z,7.05
2023-01-18T15:26:55.835Z,7.70
2023-01-18T15:29:30.594Z,7.55
2023-01-18T15:32:02.136Z,8.02
2023-01-18T15:36:58.420Z,8.57
2023-01-18T15:39:25.958Z,7.72
2023-01-18T15:41:55.593Z,7.97
2023-01-18T15:44:34.812Z,8.10
2023-01-18T15:47:02.320Z,7.57
2023-01-18T15:49:29.299Z,6.03
2023-01-18T15:51:58.882Z,7.65
2023-01-18T15:54:28.433Z,7.68
2023-01-18T15:57:11.201Z,8.40
2023-01-18T15:59:41.720Z,8.25
2023-01-18T16:02:08.272Z,9.35
2023-01-18T16:04:35.363Z,8.93
2023-01-18T16:07:35.979Z,9.02
2023-01-18T16:10:17.676Z,10.25
2023-01-18T16:12:44.539Z,10.30
2023-01-18T16:15:30.091Z,10.35
2023-01-18T16:18:06.821Z,10.95
2023-01-18T16:20:35.734Z,12.93
2023-01-18T16:23:16.285Z,11.10
2023-01-18T16:25:43.548Z,12.85
2023-01-18T16:28:10.142Z,9.57
2023-01-18T16:30:39.231Z,10.32
2023-01-18T16:33:11.983Z,9.88
2023-01-18T16:35:41.826Z,8.95
2023-01-18T16:38:12.480Z,9.50
2023-01-18T16:40:41.619Z,9.32
2023-01-18T16:43:17.607Z,9.48
2023-01-18T16:45:46.726Z,9.55
2023-01-18T16:48:21.949Z,9.32
2023-01-18T16:50:49.407Z,9.05
2023-01-18T16:53:17.531Z,10.73
2023-01-18T16:55:45.316Z,8.48
2023-01-18T16:58:15.963Z,8.20
2023-01-18T17:00:57.847Z,10.30
2023-01-18T17:03:24.909Z,8.95
2023-01-18T17:05:51.769Z,10.57
2023-01-18T17:08:18.439Z,9.73
2023-01-18T17:10:48.194Z,9.48
2023-01-18T17:13:15.300Z,10.55
2023-01-18T17:15:42.374Z,10.00
2023-01-18T17:18:14.343Z,10.40
2023-01-18T17:20:40.855Z,10.27
2023-01-18T17:23:07.454Z,10.30
2023-01-18T17:25:34.182Z,9.80
2023-01-18T17:28:01.125Z,10.95
2023-01-18T17:30:27.875Z,9.98
2023-01-18T17:32:54.523Z,11.50
2023-01-18T17:35:22.787Z,10.45
2023-01-18T17:37:54.493Z,11.68
2023-01-18T17:40:38.687Z,11.70
2023-01-18T17:43:07.193Z,14.65
2023-01-18T17:45:33.624Z,12.32
2023-01-18T17:48:00.048Z,12.55
2023-01-18T17:50:27.243Z,11.77
2023-01-18T17:52:54.533Z,12.43
2023-01-18T17:55:24.468Z,11.70
2023-01-18T17:57:55.606Z,11.18
2023-01-18T18:00:22.354Z,10.45
2023-01-18T18:02:51.346Z,9.40
2023-01-18T18:05:17.861Z,8.55
2023-01-18T18:07:44.646Z,9.80
2023-01-18T18:10:12.048Z,9.30
2023-01-18T18:12:38.693Z,9.82
2023-01-18T18:15:05.858Z,8.88
2023-01-18T18:17:32.829Z,8.23
2023-01-18T18:19:59.839Z,9.52
2023-01-18T18:22:26.415Z,10.60
2023-01-18T18:24:52.915Z,10.85
2023-01-18T18:27:20.380Z,10.45
2023-01-18T18:29:47.602Z,10.45
2023-01-18T18:32:14.569Z,11.95
2023-01-18T18:34:40.996Z,14.07
2023-01-18T18:37:07.540Z,11.40
2023-01-18T18:39:34.004Z,12.73
2023-01-18T18:42:00.823Z,12.23
2023-01-18T18:44:27.782Z,12.68
2023-01-18T18:46:54.488Z,12.40
2023-01-18T18:49:20.991Z,12.20
2023-01-18T18:51:47.415Z,14.30
2023-01-18T18:54:13.926Z,12.65
2023-01-18T18:56:41.437Z,13.30
2023-01-18T18:59:08.017Z,13.45
2023-01-18T19:01:35.249Z,12.77
2023-01-18T19:04:02.177Z,12.32
2023-01-18T19:06:28.645Z,12.27
2023-01-18T19:08:55.170Z,12.63
2023-01-18T19:11:21.877Z,11.98
2023-01-18T19:13:49.555Z,12.63
2023-01-18T19:16:16.660Z,12.05
2023-01-18T19:18:43.342Z,10.75
2023-01-18T19:21:09.757Z,11.80
2023-01-18T19:23:36.139Z,11.50
2023-01-18T19:26:03.839Z,11.38
2023-01-18T19:28:30.331Z,11.68
2023-01-18T19:31:07.852Z,10.73
2023-01-18T19:33:34.540Z,11.23
2023-01-18T19:36:15.000Z,11.77
2023-01-18T19:38:45.998Z,12.02
2023-01-18T19:41:13.630Z,11.43
2023-01-18T19:43:40.105Z,11.88
2023-01-18T19:46:10.782Z,11.52
2023-01-18T19:48:39.163Z,11.52
2023-01-18T19:51:21.618Z,12.80
2023-01-18T19:53:48.841Z,11.27
2023-01-18T19:56:15.339Z,13.30
2023-01-18T19:58:41.739Z,10.90
2023-01-18T20:01:22.987Z,10.82
2023-01-18T20:03:53.224Z,10.80
2023-01-18T20:06:20.180Z,10.90
2023-01-18T20:08:46.910Z,10.15
2023-01-18T20:11:15.591Z,10.98
2023-01-18T20:13:47.159Z,10.98
2023-01-18T20:16:13.787Z,11.30
2023-01-18T20:18:40.406Z,10.95
2023-01-18T20:21:15.123Z,10.25
2023-01-18T20:23:43.602Z,10.93
2023-01-18T20:26:18.011Z,10.73
2023-01-18T20:28:48.779Z,10.68
2023-01-18T20:31:15.278Z,11.52
2023-01-18T20:33:42.700Z,9.90
2023-01-18T20:36:09.398Z,11.38
2023-01-18T20:38:35.836Z,10.73
2023-01-18T20:41:02.431Z,10.30
2023-01-18T20:43:29.045Z,9.27
2023-01-18T20:46:03.170Z,9.57
2023-01-18T20:48:29.996Z,9.40
2023-01-18T20:51:01.094Z,9.45
2023-01-18T20:53:28.930Z,9.30
2023-01-18T20:56:01.859Z,8.68
2023-01-18T20:58:28.326Z,8.38
2023-01-18T21:00:54.885Z,8.65
2023-01-18T21:03:21.591Z,8.23
2023-01-18T21:05:48.400Z,7.72
2023-01-18T21:08:14.951Z,7.75
2023-01-18T21:10:42.173Z,7.95
2023-01-18T21:13:10.557Z,7.13
2023-01-18T21:15:38.121Z,7.05
2023-01-18T21:18:06.101Z,7.93
2023-01-18T21:20:32.963Z,6.93
2023-01-18T21:23:00.724Z,6.72
2023-01-18T21:25:28.340Z,8.82
2023-01-18T21:27:55.478Z,7.72
2023-01-18T21:30:21.903Z,8.65
2023-01-18T21:32:48.374Z,7.20
2023-01-18T21:35:15.669Z,8.27
2023-01-18T21:37:42.457Z,7.32
2023-01-18T21:40:09.816Z,6.90
2023-01-18T21:42:54.957Z,7.72
2023-01-18T21:45:39.817Z,6.85
2023-01-18T21:48:07.422Z,7.22
2023-01-18T21:50:53.145Z,7.55
2023-01-18T21:53:38.044Z,7.63
2023-01-18T21:56:04.876Z,7.50
2023-01-18T21:58:49.815Z,7.50
2023-01-18T22:01:18.971Z,6.85
2023-01-18T22:04:04.585Z,6.18
2023-01-18T22:06:31.097Z,6.72
2023-01-18T22:08:57.649Z,7.25
2023-01-18T22:11:24.043Z,7.18
2023-01-18T22:13:50.483Z,7.20
2023-01-18T22:16:17.117Z,7.35
2023-01-18T22:18:43.720Z,6.95
2023-01-18T22:21:10.112Z,6.28
2023-01-18T22:23:36.572Z,7.10
2023-01-18T22:26:03.043Z,7.63
2023-01-18T22:28:29.468Z,6.32
2023-01-18T22:30:55.987Z,6.30
2023-01-18T22:33:22.397Z,6.55
2023-01-18T22:35:48.810Z,8.32
2023-01-18T22:38:15.224Z,6.43
2023-01-18T22:40:41.807Z,6.28
2023-01-18T22:43:08.215Z,6.18
2023-01-18T22:45:34.638Z,6.50
2023-01-18T22:48:01.405Z,5.97
2023-01-18T22:50:28.037Z,6.40
2023-01-18T22:52:54.747Z,6.35
2023-01-18T22:55:21.310Z,6.63
2023-01-18T22:57:47.690Z,6.82
2023-01-18T23:00:14.530Z,7.70
2023-01-18T23:02:40.945Z,6.20
2023-01-18T23:05:07.644Z,7.78
2023-01-18T23:07:34.071Z,6.63
2023-01-18T23:10:00.685Z,6.85
2023-01-18T23:12:27.104Z,7.35
2023-01-18T23:15:12.322Z,6.78
2023-01-18T23:17:38.723Z,6.72
2023-01-18T23:20:07.476Z,6.45
2023-01-18T23:22:33.991Z,7.13
2023-01-18T23:25:00.487Z,6.72
2023-01-18T23:27:26.886Z,6.90
2023-01-18T23:29:59.191Z,6.65
2023-01-18T23:32:26.992Z,7.15
2023-01-18T23:34:59.928Z,7.53
2023-01-18T23:37:26.983Z,6.90
2023-01-18T23:40:12.340Z,6.90
2023-01-18T23:42:57.624Z,7.03
2023-01-18T23:45:42.549Z,7.72
2023-01-18T23:48:37.715Z,6.65
2023-01-18T23:51:23.611Z,7.25
2023-01-18T23:54:08.345Z,7.93
2023-01-18T23:56:34.978Z,7.35
2023-01-18T23:59:02.335Z,9.43
